sensor_id;sensor_type;location;lat;lon;timestamp;P1;durP1;ratioP1;P2;durP2;ratioP2
47009;SDS011;59230;54.164;-3.124;2022-10-31T00:03:52;26.92;;;5.03;;
47009;SDS011;59230;54.164;-3.124;2022-10-31T00:06:21;34.53;;;4.88;;
47009;SDS011;59230;54.164;-3.124;2022-10-31T00:08:58;35.45;;;4.97;;
47009;SDS011;59230;54.164;-3.124;2022-10-31T00:11:26;36.25;;;5.03;;
47009;SDS011;59230;54.164;-3.124;2022-10-31T00:13:52;36.05;;;5.10;;
47009;SDS011;59230;54.164;-3.124;2022-10-31T00:16:20;37.35;;;4.95;;
47009;SDS011;59230;54.164;-3.124;2022-10-31T00:18:53;42.88;;;4.88;;
47009;SDS011;59230;54.164;-3.124;2022-10-31T00:21:22;32.60;;;4.60;;
47009;SDS011;59230;54.164;-3.124;2022-10-31T00:23:50;44.92;;;5.90;;
47009;SDS011;59230;54.164;-3.124;2022-10-31T00:26:15;34.42;;;4.57;;
47009;SDS011;59230;54.164;-3.124;2022-10-31T00:28:42;35.72;;;4.30;;
47009;SDS011;59230;54.164;-3.124;2022-10-31T00:31:09;24.20;;;3.97;;
47009;SDS011;59230;54.164;-3.124;2022-10-31T00:33:37;37.90;;;5.07;;
47009;SDS011;59230;54.164;-3.124;2022-10-31T00:36:07;25.73;;;4.60;;
47009;SDS011;59230;54.164;-3.124;2022-10-31T00:38:40;46.28;;;4.72;;
47009;SDS011;59230;54.164;-3.124;2022-10-31T00:41:08;35.13;;;5.45;;
47009;SDS011;59230;54.164;-3.124;2022-10-31T00:43:38;28.15;;;4.50;;
47009;SDS011;59230;54.164;-3.124;2022-10-31T00:46:04;42.03;;;4.88;;
47009;SDS011;59230;54.164;-3.124;2022-10-31T00:48:30;36.60;;;4.53;;
47009;SDS011;59230;54.164;-3.124;2022-10-31T00:50:58;38.45;;;5.68;;
47009;SDS011;59230;54.164;-3.124;2022-10-31T00:53:25;42.92;;;5.15;;
47009;SDS011;59230;54.164;-3.124;2022-10-31T00:55:50;35.90;;;5.05;;
47009;SDS011;59230;54.164;-3.124;2022-10-31T00:58:18;35.25;;;4.88;;
47009;SDS011;59230;54.164;-3.124;2022-10-31T01:00:46;26.60;;;4.53;;
47009;SDS011;59230;54.164;-3.124;2022-10-31T01:03:22;45.13;;;4.80;;
47009;SDS011;59230;54.164;-3.124;2022-10-31T01:05:57;41.97;;;3.75;;
47009;SDS011;59230;54.164;-3.124;2022-10-31T01:08:26;36.40;;;4.32;;
47009;SDS011;59230;54.164;-3.124;2022-10-31T01:13:38;42.78;;;3.88;;
47009;SDS011;59230;54.164;-3.124;2022-10-31T01:16:05;27.55;;;4.00;;
47009;SDS011;59230;54.164;-3.124;2022-10-31T01:18:32;42.22;;;4.63;;
47009;SDS011;59230;54.164;-3.124;2022-10-31T01:21:04;36.25;;;4.05;;
47009;SDS011;59230;54.164;-3.124;2022-10-31T01:23:40;36.60;;;5.10;;
47009;SDS011;59230;54.164;-3.124;2022-10-31T01:28:36;28.10;;;3.75;;
47009;SDS011;59230;54.164;-3.124;2022-10-31T01:31:05;41.92;;;4.30;;
47009;SDS011;59230;54.164;-3.124;2022-10-31T01:33:32;43.80;;;5.10;;
47009;SDS011;59230;54.164;-3.124;2022-10-31T01:35:59;39.30;;;4.40;;
47009;SDS011;59230;54.164;-3.124;2022-10-31T01:38:30;43.63;;;4.55;;
47009;SDS011;59230;54.164;-3.124;2022-10-31T01:40:56;46.65;;;4.97;;
47009;SDS011;59230;54.164;-3.124;2022-10-31T01:43:22;31.20;;;4.28;;
47009;SDS011;59230;54.164;-3.124;2022-10-31T01:45:51;44.55;;;5.07;;
47009;SDS011;59230;54.164;-3.124;2022-10-31T01:48:20;37.90;;;5.15;;
47009;SDS011;59230;54.164;-3.124;2022-10-31T01:50:50;34.70;;;4.40;;
47009;SDS011;59230;54.164;-3.124;2022-10-31T01:53:17;53.60;;;4.93;;
47009;SDS011;59230;54.164;-3.124;2022-10-31T01:55:44;43.40;;;4.72;;
47009;SDS011;59230;54.164;-3.124;2022-10-31T01:58:14;43.88;;;5.22;;
47009;SDS011;59230;54.164;-3.124;2022-10-31T02:00:45;32.63;;;5.07;;
47009;SDS011;59230;54.164;-3.124;2022-10-31T02:05:42;37.72;;;4.45;;
47009;SDS011;59230;54.164;-3.124;2022-10-31T02:08:12;32.75;;;4.35;;
47009;SDS011;59230;54.164;-3.124;2022-10-31T02:10:41;28.73;;;4.35;;
47009;SDS011;59230;54.164;-3.124;2022-10-31T02:13:09;48.90;;;4.72;;
47009;SDS011;59230;54.164;-3.124;2022-10-31T02:15:36;45.70;;;5.03;;
47009;SDS011;59230;54.164;-3.124;2022-10-31T02:18:03;29.58;;;5.10;;
47009;SDS011;59230;54.164;-3.124;2022-10-31T02:20:42;36.25;;;5.05;;
47009;SDS011;59230;54.164;-3.124;2022-10-31T02:23:39;32.92;;;5.20;;
47009;SDS011;59230;54.164;-3.124;2022-10-31T02:37:28;44.13;;;6.15;;
47009;SDS011;59230;54.164;-3.124;2022-10-31T02:45:45;39.50;;;6.10;;
47009;SDS011;59230;54.164;-3.124;2022-10-31T02:48:19;40.10;;;7.00;;
47009;SDS011;59230;54.164;-3.124;2022-10-31T02:50:55;45.30;;;6.05;;
47009;SDS011;59230;54.164;-3.124;2022-10-31T02:53:35;53.63;;;6.30;;
47009;SDS011;59230;54.164;-3.124;2022-10-31T03:18:03;58.70;;;19.35;;
47009;SDS011;59230;54.164;-3.124;2022-10-31T03:21:01;39.65;;;9.48;;
47009;SDS011;59230;54.164;-3.124;2022-10-31T03:23:36;40.25;;;7.13;;
47009;SDS011;59230;54.164;-3.124;2022-10-31T03:26:11;44.17;;;7.18;;
47009;SDS011;59230;54.164;-3.124;2022-10-31T03:28:41;33.47;;;7.15;;
47009;SDS011;59230;54.164;-3.124;2022-10-31T03:31:34;48.20;;;9.47;;
47009;SDS011;59230;54.164;-3.124;2022-10-31T03:34:17;49.35;;;8.00;;
47009;SDS011;59230;54.164;-3.124;2022-10-31T03:36:44;39.95;;;6.00;;
47009;SDS011;59230;54.164;-3.124;2022-10-31T03:39:12;47.70;;;6.72;;
47009;SDS011;59230;54.164;-3.124;2022-10-31T03:41:41;44.03;;;7.10;;
47009;SDS011;59230;54.164;-3.124;2022-10-31T03:44:17;45.13;;;6.43;;
47009;SDS011;59230;54.164;-3.124;2022-10-31T03:46:45;37.35;;;6.03;;
47009;SDS011;59230;54.164;-3.124;2022-10-31T03:49:11;44.63;;;5.90;;
47009;SDS011;59230;54.164;-3.124;2022-10-31T03:57:24;41.38;;;6.07;;
47009;SDS011;59230;54.164;-3.124;2022-10-31T04:00:12;51.88;;;6.30;;
47009;SDS011;59230;54.164;-3.124;2022-10-31T04:05:30;44.60;;;6.50;;
47009;SDS011;59230;54.164;-3.124;2022-10-31T04:07:58;45.53;;;7.18;;
47009;SDS011;59230;54.164;-3.124;2022-10-31T04:10:29;54.58;;;7.10;;
47009;SDS011;59230;54.164;-3.124;2022-10-31T04:12:57;46.85;;;7.03;;
47009;SDS011;59230;54.164;-3.124;2022-10-31T04:15:28;43.05;;;6.95;;
47009;SDS011;59230;54.164;-3.124;2022-10-31T04:17:55;56.33;;;7.68;;
47009;SDS011;59230;54.164;-3.124;2022-10-31T04:20:31;41.65;;;7.28;;
47009;SDS011;59230;54.164;-3.124;2022-10-31T04:23:05;51.70;;;6.75;;
47009;SDS011;59230;54.164;-3.124;2022-10-31T04:26:01;44.15;;;6.45;;
47009;SDS011;59230;54.164;-3.124;2022-10-31T04:28:27;44.75;;;7.22;;
47009;SDS011;59230;54.164;-3.124;2022-10-31T04:30:54;51.00;;;7.47;;
47009;SDS011;59230;54.164;-3.124;2022-10-31T04:33:20;37.72;;;6.38;;
47009;SDS011;59230;54.164;-3.124;2022-10-31T04:35:47;36.30;;;6.75;;
47009;SDS011;59230;54.164;-3.124;2022-10-31T04:38:15;58.92;;;8.20;;
47009;SDS011;59230;54.164;-3.124;2022-10-31T04:40:41;54.88;;;6.90;;
47009;SDS011;59230;54.164;-3.124;2022-10-31T04:43:09;48.67;;;7.45;;
47009;SDS011;59230;54.164;-3.124;2022-10-31T04:45:36;44.30;;;6.43;;
47009;SDS011;59230;54.164;-3.124;2022-10-31T04:48:11;51.67;;;6.85;;
47009;SDS011;59230;54.164;-3.124;2022-10-31T04:50:36;38.78;;;6.78;;
47009;SDS011;59230;54.164;-3.124;2022-10-31T04:53:03;47.97;;;6.78;;
47009;SDS011;59230;54.164;-3.124;2022-10-31T04:55:28;47.17;;;6.60;;
47009;SDS011;59230;54.164;-3.124;2022-10-31T04:57:57;53.28;;;6.43;;
47009;SDS011;59230;54.164;-3.124;2022-10-31T05:00:25;50.30;;;6.45;;
47009;SDS011;59230;54.164;-3.124;2022-10-31T05:02:52;47.17;;;6.00;;
47009;SDS011;59230;54.164;-3.124;2022-10-31T05:05:21;45.40;;;6.57;;
47009;SDS011;59230;54.164;-3.124;2022-10-31T05:07:49;42.63;;;5.57;;
47009;SDS011;59230;54.164;-3.124;2022-10-31T05:10:17;41.40;;;6.88;;
47009;SDS011;59230;54.164;-3.124;2022-10-31T05:12:49;42.38;;;6.03;;
47009;SDS011;59230;54.164;-3.124;2022-10-31T05:15:17;49.63;;;6.55;;
47009;SDS011;59230;54.164;-3.124;2022-10-31T05:17:44;48.97;;;6.53;;
47009;SDS011;59230;54.164;-3.124;2022-10-31T05:20:12;48.22;;;6.07;;
47009;SDS011;59230;54.164;-3.124;2022-10-31T05:22:47;43.53;;;6.00;;
47009;SDS011;59230;54.164;-3.124;2022-10-31T05:25:16;48.95;;;5.80;;
47009;SDS011;59230;54.164;-3.124;2022-10-31T05:27:44;54.17;;;5.78;;
47009;SDS011;59230;54.164;-3.124;2022-10-31T05:30:13;48.33;;;6.82;;
47009;SDS011;59230;54.164;-3.124;2022-10-31T05:32:50;51.38;;;5.70;;
47009;SDS011;59230;54.164;-3.124;2022-10-31T05:35:21;53.85;;;6.43;;
47009;SDS011;59230;54.164;-3.124;2022-10-31T05:37:49;44.38;;;6.10;;
47009;SDS011;59230;54.164;-3.124;2022-10-31T05:40:21;50.22;;;6.18;;
47009;SDS011;59230;54.164;-3.124;2022-10-31T05:42:52;52.30;;;7.10;;
47009;SDS011;59230;54.164;-3.124;2022-10-31T05:45:19;42.10;;;5.32;;
47009;SDS011;59230;54.164;-3.124;2022-10-31T05:47:57;53.63;;;5.72;;
47009;SDS011;59230;54.164;-3.124;2022-10-31T05:50:25;58.00;;;6.63;;
47009;SDS011;59230;54.164;-3.124;2022-10-31T05:52:55;50.17;;;6.50;;
47009;SDS011;59230;54.164;-3.124;2022-10-31T05:55:26;54.00;;;6.80;;
47009;SDS011;59230;54.164;-3.124;2022-10-31T05:57:56;40.65;;;5.45;;
47009;SDS011;59230;54.164;-3.124;2022-10-31T06:00:25;44.28;;;6.65;;
47009;SDS011;59230;54.164;-3.124;2022-10-31T06:02:59;46.17;;;6.20;;
47009;SDS011;59230;54.164;-3.124;2022-10-31T06:05:37;47.67;;;5.97;;
47009;SDS011;59230;54.164;-3.124;2022-10-31T06:08:09;52.83;;;6.05;;
47009;SDS011;59230;54.164;-3.124;2022-10-31T06:10:36;45.13;;;6.38;;
47009;SDS011;59230;54.164;-3.124;2022-10-31T06:13:05;40.38;;;5.75;;
47009;SDS011;59230;54.164;-3.124;2022-10-31T06:15:33;45.75;;;5.50;;
47009;SDS011;59230;54.164;-3.124;2022-10-31T06:18:00;45.38;;;5.75;;
47009;SDS011;59230;54.164;-3.124;2022-10-31T06:20:27;54.17;;;5.50;;
47009;SDS011;59230;54.164;-3.124;2022-10-31T06:22:53;47.38;;;6.13;;
47009;SDS011;59230;54.164;-3.124;2022-10-31T06:25:18;61.65;;;6.30;;
47009;SDS011;59230;54.164;-3.124;2022-10-31T06:27:44;44.78;;;5.15;;
47009;SDS011;59230;54.164;-3.124;2022-10-31T06:30:15;53.22;;;6.50;;
47009;SDS011;59230;54.164;-3.124;2022-10-31T06:32:42;44.50;;;6.40;;
47009;SDS011;59230;54.164;-3.124;2022-10-31T06:35:10;49.28;;;6.25;;
47009;SDS011;59230;54.164;-3.124;2022-10-31T06:37:36;43.75;;;6.60;;
47009;SDS011;59230;54.164;-3.124;2022-10-31T06:40:02;41.15;;;6.00;;
47009;SDS011;59230;54.164;-3.124;2022-10-31T06:42:28;46.67;;;5.53;;
47009;SDS011;59230;54.164;-3.124;2022-10-31T06:44:55;48.15;;;6.63;;
47009;SDS011;59230;54.164;-3.124;2022-10-31T06:47:22;48.80;;;5.68;;
47009;SDS011;59230;54.164;-3.124;2022-10-31T06:49:47;43.67;;;5.93;;
47009;SDS011;59230;54.164;-3.124;2022-10-31T06:52:16;49.22;;;5.18;;
47009;SDS011;59230;54.164;-3.124;2022-10-31T06:54:44;52.83;;;6.18;;
47009;SDS011;59230;54.164;-3.124;2022-10-31T06:57:10;48.85;;;7.20;;
47009;SDS011;59230;54.164;-3.124;2022-10-31T06:59:36;54.25;;;8.95;;
47009;SDS011;59230;54.164;-3.124;2022-10-31T07:02:03;44.88;;;6.93;;
47009;SDS011;59230;54.164;-3.124;2022-10-31T07:04:28;56.47;;;7.15;;
47009;SDS011;59230;54.164;-3.124;2022-10-31T07:06:54;59.60;;;7.68;;
47009;SDS011;59230;54.164;-3.124;2022-10-31T07:09:20;63.10;;;6.72;;
47009;SDS011;59230;54.164;-3.124;2022-10-31T07:11:46;45.35;;;7.03;;
47009;SDS011;59230;54.164;-3.124;2022-10-31T07:14:13;46.75;;;6.00;;
47009;SDS011;59230;54.164;-3.124;2022-10-31T07:16:41;56.17;;;9.38;;
47009;SDS011;59230;54.164;-3.124;2022-10-31T07:19:07;46.30;;;6.95;;
47009;SDS011;59230;54.164;-3.124;2022-10-31T07:21:33;51.08;;;6.93;;
47009;SDS011;59230;54.164;-3.124;2022-10-31T07:24:00;52.53;;;7.32;;
47009;SDS011;59230;54.164;-3.124;2022-10-31T07:26:28;53.13;;;6.13;;
47009;SDS011;59230;54.164;-3.124;2022-10-31T07:28:54;48.75;;;6.20;;
47009;SDS011;59230;54.164;-3.124;2022-10-31T07:31:24;51.72;;;6.18;;
47009;SDS011;59230;54.164;-3.124;2022-10-31T07:33:51;53.22;;;7.00;;
47009;SDS011;59230;54.164;-3.124;2022-10-31T07:36:18;50.33;;;6.97;;
47009;SDS011;59230;54.164;-3.124;2022-10-31T07:38:44;57.92;;;5.90;;
47009;SDS011;59230;54.164;-3.124;2022-10-31T07:41:10;53.97;;;6.50;;
47009;SDS011;59230;54.164;-3.124;2022-10-31T07:43:37;42.47;;;7.32;;
47009;SDS011;59230;54.164;-3.124;2022-10-31T07:46:05;52.85;;;6.03;;
47009;SDS011;59230;54.164;-3.124;2022-10-31T07:48:33;54.60;;;6.03;;
47009;SDS011;59230;54.164;-3.124;2022-10-31T07:50:59;59.60;;;6.93;;
47009;SDS011;59230;54.164;-3.124;2022-10-31T07:53:27;64.28;;;6.70;;
47009;SDS011;59230;54.164;-3.124;2022-10-31T07:55:54;37.17;;;6.05;;
47009;SDS011;59230;54.164;-3.124;2022-10-31T07:58:20;56.15;;;6.93;;
47009;SDS011;59230;54.164;-3.124;2022-10-31T08:00:47;48.65;;;6.95;;
47009;SDS011;59230;54.164;-3.124;2022-10-31T08:03:18;51.05;;;6.72;;
47009;SDS011;59230;54.164;-3.124;2022-10-31T08:05:45;55.45;;;6.05;;
47009;SDS011;59230;54.164;-3.124;2022-10-31T08:08:13;52.53;;;6.85;;
47009;SDS011;59230;54.164;-3.124;2022-10-31T08:10:41;56.13;;;6.55;;
47009;SDS011;59230;54.164;-3.124;2022-10-31T08:13:11;38.30;;;6.63;;
47009;SDS011;59230;54.164;-3.124;2022-10-31T08:15:39;57.40;;;7.72;;
47009;SDS011;59230;54.164;-3.124;2022-10-31T08:18:12;46.80;;;6.53;;
47009;SDS011;59230;54.164;-3.124;2022-10-31T08:20:42;67.68;;;20.70;;
47009;SDS011;59230;54.164;-3.124;2022-10-31T08:23:09;56.53;;;9.75;;
47009;SDS011;59230;54.164;-3.124;2022-10-31T08:25:37;63.42;;;11.90;;
47009;SDS011;59230;54.164;-3.124;2022-10-31T08:28:04;53.80;;;9.98;;
47009;SDS011;59230;54.164;-3.124;2022-10-31T08:30:34;51.63;;;10.65;;
47009;SDS011;59230;54.164;-3.124;2022-10-31T08:33:09;57.90;;;10.70;;
47009;SDS011;59230;54.164;-3.124;2022-10-31T08:35:37;48.30;;;7.80;;
47009;SDS011;59230;54.164;-3.124;2022-10-31T08:38:02;47.05;;;6.63;;
47009;SDS011;59230;54.164;-3.124;2022-10-31T08:40:31;44.90;;;7.25;;
47009;SDS011;59230;54.164;-3.124;2022-10-31T08:43:05;38.70;;;6.68;;
47009;SDS011;59230;54.164;-3.124;2022-10-31T08:45:33;54.65;;;10.68;;
47009;SDS011;59230;54.164;-3.124;2022-10-31T08:48:08;53.22;;;10.18;;
47009;SDS011;59230;54.164;-3.124;2022-10-31T08:50:37;49.00;;;5.85;;
47009;SDS011;59230;54.164;-3.124;2022-10-31T08:53:07;40.97;;;5.10;;
47009;SDS011;59230;54.164;-3.124;2022-10-31T08:55:44;45.55;;;6.07;;
47009;SDS011;59230;54.164;-3.124;2022-10-31T08:58:14;39.95;;;5.30;;
47009;SDS011;59230;54.164;-3.124;2022-10-31T09:00:42;33.45;;;4.72;;
47009;SDS011;59230;54.164;-3.124;2022-10-31T09:03:10;52.50;;;5.82;;
47009;SDS011;59230;54.164;-3.124;2022-10-31T09:05:38;50.38;;;6.25;;
47009;SDS011;59230;54.164;-3.124;2022-10-31T09:08:04;43.13;;;8.27;;
47009;SDS011;59230;54.164;-3.124;2022-10-31T09:10:31;44.17;;;6.40;;
47009;SDS011;59230;54.164;-3.124;2022-10-31T09:13:01;45.15;;;5.00;;
47009;SDS011;59230;54.164;-3.124;2022-10-31T09:15:36;47.03;;;5.68;;
47009;SDS011;59230;54.164;-3.124;2022-10-31T09:18:06;38.15;;;5.18;;
47009;SDS011;59230;54.164;-3.124;2022-10-31T09:20:33;38.55;;;6.10;;
47009;SDS011;59230;54.164;-3.124;2022-10-31T09:23:01;43.30;;;8.35;;
47009;SDS011;59230;54.164;-3.124;2022-10-31T09:25:34;50.90;;;9.20;;
47009;SDS011;59230;54.164;-3.124;2022-10-31T09:28:02;36.53;;;5.97;;
47009;SDS011;59230;54.164;-3.124;2022-10-31T09:30:32;39.45;;;6.88;;
47009;SDS011;59230;54.164;-3.124;2022-10-31T09:33:02;43.88;;;12.02;;
47009;SDS011;59230;54.164;-3.124;2022-10-31T09:35:31;42.92;;;6.90;;
47009;SDS011;59230;54.164;-3.124;2022-10-31T09:37:59;37.45;;;6.00;;
47009;SDS011;59230;54.164;-3.124;2022-10-31T09:40:31;45.70;;;7.25;;
47009;SDS011;59230;54.164;-3.124;2022-10-31T09:43:12;39.70;;;8.95;;
47009;SDS011;59230;54.164;-3.124;2022-10-31T09:45:52;39.97;;;7.57;;
47009;SDS011;59230;54.164;-3.124;2022-10-31T09:51:43;38.42;;;5.10;;
47009;SDS011;59230;54.164;-3.124;2022-10-31T09:54:22;36.35;;;4.93;;
47009;SDS011;59230;54.164;-3.124;2022-10-31T09:57:15;49.63;;;7.32;;
47009;SDS011;59230;54.164;-3.124;2022-10-31T09:59:47;40.88;;;11.00;;
47009;SDS011;59230;54.164;-3.124;2022-10-31T10:13:26;37.33;;;5.00;;
47009;SDS011;59230;54.164;-3.124;2022-10-31T10:16:12;41.90;;;6.15;;
47009;SDS011;59230;54.164;-3.124;2022-10-31T10:24:18;61.70;;;23.33;;
47009;SDS011;59230;54.164;-3.124;2022-10-31T10:29:43;32.38;;;5.35;;
47009;SDS011;59230;54.164;-3.124;2022-10-31T10:32:50;38.85;;;5.75;;
47009;SDS011;59230;54.164;-3.124;2022-10-31T10:37:55;43.17;;;9.05;;
47009;SDS011;59230;54.164;-3.124;2022-10-31T10:40:25;33.92;;;5.55;;
47009;SDS011;59230;54.164;-3.124;2022-10-31T10:42:59;42.67;;;5.28;;
47009;SDS011;59230;54.164;-3.124;2022-10-31T10:45:46;30.80;;;4.47;;
47009;SDS011;59230;54.164;-3.124;2022-10-31T10:48:39;34.30;;;5.20;;
47009;SDS011;59230;54.164;-3.124;2022-10-31T10:51:23;36.15;;;4.78;;
47009;SDS011;59230;54.164;-3.124;2022-10-31T10:54:09;37.63;;;5.10;;
47009;SDS011;59230;54.164;-3.124;2022-10-31T10:59:47;27.55;;;4.28;;
47009;SDS011;59230;54.164;-3.124;2022-10-31T11:02:15;31.58;;;4.70;;
47009;SDS011;59230;54.164;-3.124;2022-10-31T11:04:44;26.23;;;4.57;;
47009;SDS011;59230;54.164;-3.124;2022-10-31T11:07:11;52.25;;;17.38;;
47009;SDS011;59230;54.164;-3.124;2022-10-31T11:09:37;49.08;;;14.07;;
47009;SDS011;59230;54.164;-3.124;2022-10-31T11:12:09;50.80;;;12.27;;
47009;SDS011;59230;54.164;-3.124;2022-10-31T11:14:45;41.53;;;11.38;;
47009;SDS011;59230;54.164;-3.124;2022-10-31T11:17:30;51.13;;;13.38;;
47009;SDS011;59230;54.164;-3.124;2022-10-31T11:20:04;70.22;;;20.77;;
47009;SDS011;59230;54.164;-3.124;2022-10-31T11:22:44;44.20;;;12.30;;
47009;SDS011;59230;54.164;-3.124;2022-10-31T11:25:22;37.25;;;8.00;;
47009;SDS011;59230;54.164;-3.124;2022-10-31T11:28:00;27.70;;;6.80;;
47009;SDS011;59230;54.164;-3.124;2022-10-31T11:30:30;33.83;;;7.30;;
47009;SDS011;59230;54.164;-3.124;2022-10-31T11:33:03;41.47;;;9.65;;
47009;SDS011;59230;54.164;-3.124;2022-10-31T11:35:30;45.65;;;11.15;;
47009;SDS011;59230;54.164;-3.124;2022-10-31T11:37:56;50.80;;;17.35;;
47009;SDS011;59230;54.164;-3.124;2022-10-31T11:40:26;84.05;;;40.17;;
47009;SDS011;59230;54.164;-3.124;2022-10-31T11:42:54;46.30;;;10.48;;
47009;SDS011;59230;54.164;-3.124;2022-10-31T11:47:51;38.53;;;5.25;;
47009;SDS011;59230;54.164;-3.124;2022-10-31T11:50:35;26.15;;;5.07;;
47009;SDS011;59230;54.164;-3.124;2022-10-31T11:53:12;29.75;;;7.90;;
47009;SDS011;59230;54.164;-3.124;2022-10-31T11:55:41;31.25;;;5.85;;
47009;SDS011;59230;54.164;-3.124;2022-10-31T11:58:23;39.85;;;5.07;;
47009;SDS011;59230;54.164;-3.124;2022-10-31T12:00:53;35.30;;;4.90;;
47009;SDS011;59230;54.164;-3.124;2022-10-31T12:06:13;34.83;;;11.07;;
47009;SDS011;59230;54.164;-3.124;2022-10-31T12:08:39;26.58;;;5.53;;
47009;SDS011;59230;54.164;-3.124;2022-10-31T12:21:42;31.88;;;5.60;;
47009;SDS011;59230;54.164;-3.124;2022-10-31T12:27:11;37.60;;;12.27;;
47009;SDS011;59230;54.164;-3.124;2022-10-31T12:32:38;33.70;;;9.93;;
47009;SDS011;59230;54.164;-3.124;2022-10-31T12:46:04;31.95;;;5.13;;
47009;SDS011;59230;54.164;-3.124;2022-10-31T12:59:34;25.60;;;4.63;;
47009;SDS011;59230;54.164;-3.124;2022-10-31T13:02:22;36.50;;;4.35;;
47009;SDS011;59230;54.164;-3.124;2022-10-31T13:05:43;23.38;;;3.10;;
47009;SDS011;59230;54.164;-3.124;2022-10-31T13:08:09;29.90;;;3.80;;
47009;SDS011;59230;54.164;-3.124;2022-10-31T13:10:49;32.83;;;4.85;;
47009;SDS011;59230;54.164;-3.124;2022-10-31T13:13:26;28.48;;;4.95;;
47009;SDS011;59230;54.164;-3.124;2022-10-31T13:16:03;31.48;;;4.70;;
47009;SDS011;59230;54.164;-3.124;2022-10-31T13:18:52;32.22;;;5.30;;
47009;SDS011;59230;54.164;-3.124;2022-10-31T13:21:36;25.48;;;6.07;;
47009;SDS011;59230;54.164;-3.124;2022-10-31T13:24:21;41.60;;;5.10;;
47009;SDS011;59230;54.164;-3.124;2022-10-31T13:26:59;25.25;;;5.32;;
47009;SDS011;59230;54.164;-3.124;2022-10-31T13:29:36;31.85;;;5.22;;
47009;SDS011;59230;54.164;-3.124;2022-10-31T13:32:10;34.28;;;4.93;;
47009;SDS011;59230;54.164;-3.124;2022-10-31T13:34:50;24.25;;;7.78;;
47009;SDS011;59230;54.164;-3.124;2022-10-31T13:40:32;26.45;;;5.22;;
47009;SDS011;59230;54.164;-3.124;2022-10-31T13:45:30;22.17;;;4.32;;
47009;SDS011;59230;54.164;-3.124;2022-10-31T13:47:57;57.15;;;24.77;;
47009;SDS011;59230;54.164;-3.124;2022-10-31T13:53:12;41.30;;;14.32;;
47009;SDS011;59230;54.164;-3.124;2022-10-31T13:55:44;39.83;;;7.97;;
47009;SDS011;59230;54.164;-3.124;2022-10-31T14:03:38;32.20;;;10.32;;
47009;SDS011;59230;54.164;-3.124;2022-10-31T14:06:07;41.63;;;13.93;;
47009;SDS011;59230;54.164;-3.124;2022-10-31T14:08:35;38.10;;;6.00;;
47009;SDS011;59230;54.164;-3.124;2022-10-31T14:11:07;62.47;;;23.50;;
47009;SDS011;59230;54.164;-3.124;2022-10-31T14:13:38;28.92;;;5.60;;
47009;SDS011;59230;54.164;-3.124;2022-10-31T14:16:23;40.22;;;9.95;;
47009;SDS011;59230;54.164;-3.124;2022-10-31T14:19:24;29.65;;;5.75;;
47009;SDS011;59230;54.164;-3.124;2022-10-31T14:21:46;30.88;;;5.32;;
47009;SDS011;59230;54.164;-3.124;2022-10-31T14:26:52;29.30;;;4.88;;
47009;SDS011;59230;54.164;-3.124;2022-10-31T14:34:41;44.13;;;13.68;;
47009;SDS011;59230;54.164;-3.124;2022-10-31T14:42:32;36.42;;;8.88;;
47009;SDS011;59230;54.164;-3.124;2022-10-31T14:53:44;34.45;;;6.78;;
47009;SDS011;59230;54.164;-3.124;2022-10-31T14:56:30;40.47;;;5.80;;
47009;SDS011;59230;54.164;-3.124;2022-10-31T14:59:02;37.45;;;7.93;;
47009;SDS011;59230;54.164;-3.124;2022-10-31T15:01:36;37.53;;;7.20;;
47009;SDS011;59230;54.164;-3.124;2022-10-31T15:04:25;31.60;;;5.63;;
47009;SDS011;59230;54.164;-3.124;2022-10-31T15:09:34;89.45;;;36.92;;
47009;SDS011;59230;54.164;-3.124;2022-10-31T15:12:21;39.05;;;8.95;;
47009;SDS011;59230;54.164;-3.124;2022-10-31T15:14:53;164.73;;;75.90;;
47009;SDS011;59230;54.164;-3.124;2022-10-31T15:17:21;110.75;;;51.05;;
47009;SDS011;59230;54.164;-3.124;2022-10-31T15:19:53;46.15;;;11.77;;
47009;SDS011;59230;54.164;-3.124;2022-10-31T15:22:24;73.63;;;23.75;;
47009;SDS011;59230;54.164;-3.124;2022-10-31T15:24:53;83.35;;;28.25;;
47009;SDS011;59230;54.164;-3.124;2022-10-31T15:27:23;54.88;;;15.93;;
47009;SDS011;59230;54.164;-3.124;2022-10-31T15:29:52;177.27;;;74.43;;
47009;SDS011;59230;54.164;-3.124;2022-10-31T15:32:26;67.00;;;25.27;;
47009;SDS011;59230;54.164;-3.124;2022-10-31T15:34:56;41.63;;;12.38;;
47009;SDS011;59230;54.164;-3.124;2022-10-31T15:37:22;39.33;;;7.60;;
47009;SDS011;59230;54.164;-3.124;2022-10-31T15:39:51;34.35;;;12.40;;
47009;SDS011;59230;54.164;-3.124;2022-10-31T15:42:28;30.45;;;7.43;;
47009;SDS011;59230;54.164;-3.124;2022-10-31T15:47:39;34.60;;;9.27;;
47009;SDS011;59230;54.164;-3.124;2022-10-31T15:50:19;35.05;;;14.80;;
47009;SDS011;59230;54.164;-3.124;2022-10-31T15:53:13;41.17;;;14.95;;
47009;SDS011;59230;54.164;-3.124;2022-10-31T15:55:46;37.70;;;12.32;;
47009;SDS011;59230;54.164;-3.124;2022-10-31T15:58:19;28.02;;;6.10;;
47009;SDS011;59230;54.164;-3.124;2022-10-31T16:00:56;29.63;;;6.25;;
47009;SDS011;59230;54.164;-3.124;2022-10-31T16:03:31;28.48;;;4.97;;
47009;SDS011;59230;54.164;-3.124;2022-10-31T16:06:02;24.88;;;5.80;;
47009;SDS011;59230;54.164;-3.124;2022-10-31T16:08:35;34.38;;;5.40;;
47009;SDS011;59230;54.164;-3.124;2022-10-31T16:13:37;23.70;;;4.90;;
47009;SDS011;59230;54.164;-3.124;2022-10-31T16:16:24;25.30;;;4.93;;
47009;SDS011;59230;54.164;-3.124;2022-10-31T16:18:53;27.38;;;5.50;;
47009;SDS011;59230;54.164;-3.124;2022-10-31T16:21:30;30.10;;;8.05;;
47009;SDS011;59230;54.164;-3.124;2022-10-31T16:24:45;27.40;;;7.20;;
47009;SDS011;59230;54.164;-3.124;2022-10-31T16:27:36;30.25;;;6.20;;
47009;SDS011;59230;54.164;-3.124;2022-10-31T16:30:02;28.05;;;6.10;;
47009;SDS011;59230;54.164;-3.124;2022-10-31T16:35:38;47.30;;;13.77;;
47009;SDS011;59230;54.164;-3.124;2022-10-31T16:38:05;76.15;;;47.15;;
47009;SDS011;59230;54.164;-3.124;2022-10-31T16:40:34;88.18;;;52.78;;
47009;SDS011;59230;54.164;-3.124;2022-10-31T16:43:03;150.35;;;100.85;;
47009;SDS011;59230;54.164;-3.124;2022-10-31T16:45:30;131.30;;;86.75;;
47009;SDS011;59230;54.164;-3.124;2022-10-31T16:48:10;99.10;;;62.25;;
47009;SDS011;59230;54.164;-3.124;2022-10-31T16:50:40;73.53;;;46.28;;
47009;SDS011;59230;54.164;-3.124;2022-10-31T16:53:07;50.47;;;22.05;;
47009;SDS011;59230;54.164;-3.124;2022-10-31T16:55:41;46.80;;;21.50;;
47009;SDS011;59230;54.164;-3.124;2022-10-31T16:58:13;38.72;;;12.75;;
47009;SDS011;59230;54.164;-3.124;2022-10-31T17:00:46;33.80;;;8.95;;
47009;SDS011;59230;54.164;-3.124;2022-10-31T17:03:13;31.10;;;5.65;;
47009;SDS011;59230;54.164;-3.124;2022-10-31T17:05:39;22.00;;;4.93;;
47009;SDS011;59230;54.164;-3.124;2022-10-31T17:08:06;31.48;;;4.60;;
47009;SDS011;59230;54.164;-3.124;2022-10-31T17:10:35;34.08;;;4.38;;
47009;SDS011;59230;54.164;-3.124;2022-10-31T17:13:06;25.95;;;4.80;;
47009;SDS011;59230;54.164;-3.124;2022-10-31T17:15:46;29.33;;;6.85;;
47009;SDS011;59230;54.164;-3.124;2022-10-31T17:18:16;30.88;;;7.32;;
47009;SDS011;59230;54.164;-3.124;2022-10-31T17:20:43;33.25;;;8.68;;
47009;SDS011;59230;54.164;-3.124;2022-10-31T17:23:14;29.63;;;9.55;;
47009;SDS011;59230;54.164;-3.124;2022-10-31T17:25:43;27.35;;;7.70;;
47009;SDS011;59230;54.164;-3.124;2022-10-31T17:28:12;22.73;;;5.00;;
47009;SDS011;59230;54.164;-3.124;2022-10-31T17:30:40;30.27;;;5.70;;
47009;SDS011;59230;54.164;-3.124;2022-10-31T17:33:15;21.20;;;4.68;;
47009;SDS011;59230;54.164;-3.124;2022-10-31T17:35:43;28.17;;;5.45;;
47009;SDS011;59230;54.164;-3.124;2022-10-31T17:38:09;24.83;;;6.45;;
47009;SDS011;59230;54.164;-3.124;2022-10-31T17:40:36;22.58;;;5.57;;